Pecos, TX

11:54 PM CDT on May 06, 2015 (GMT -0500)
MesoWest | | Change Station
CLOSE
Current Station
Personal Weather Station
Location: Barstow, TX
Elevation: 2573 ft
Nearby Weather Stations

Elev 2573 ft 31.44 °N, 103.46 °W | Updated 2 hours ago

Clear
Clear
76 °F
Feels Like 74 °F
N
Wind Variable Wind from North
Gusts 0.0 mph

Today
High -- | Low -- °F
--% Chance of Precip.
Yesterday
High -- | Low -- °F
Precip. -- in
7:04 AM 8:36 PM
Waning Gibbous, 90% visible
Pressure 29.77 in
Visibility 10.0 miles
Clouds Clear
Heat Index 74 °F
Dew Point Not available.
Humidity Not available.
Rainfall in
Snow Depth Not available.
UV 0 out of 12
Pollen 6.60 out of 12
Air Quality Not available.
Flu Activity Sporadic
METAR KPEQ 070435Z AUTO 11015KT 10SM CLR 22/16 A2977 RMK AO2 T02230160

More Conditions Fewer Conditions

Pressure 29.77 in
Visibility 10.0 miles
Clouds Clear
Heat Index 74 °F
Dew Point Not available.
Humidity Not available.
Rainfall in
Snow Depth Not available.
UV 0 out of 12
Pollen 6.60 out of 12
Air Quality Not available.
Flu Activity Sporadic
METAR KPEQ 070435Z AUTO 11015KT 10SM CLR 22/16 A2977 RMK AO2 T02230160

More Conditions Fewer Conditions

10-Day Weather Forecast

Almanac

Astronomy

May. 06, 2015 Rise Set
Actual Time
Civil Twilight
Nautical Twilight
Astronomical Twilight
Moon
Length of Visible Light
Length of Day
Tomorrow will be .
, % of the Moon is Illuminated

Today's Extremes

State Highs State Lows

Community

WunderPhotos

Upload Photos

1,819,121 photos uploaded!

WunderBlogs® & News

Nearby

Air Quality

  Air Quality AQ Index Pollutant
Not available.

Snow Depth

Station Depth Elevation

Earthquake Activity

City Distance Mag. Time & Date
Minimum magnitude displayed is 2.5.

Coastal Water Temperatures

Place Temperature

Stations

Nearby Weather Stations

Station Location Temp. Windchill Dew Point Humidity Wind Precip. Elev Updated Type